IBE350 KMCO-LEMD
Flight info
| Callsign | IBE350 |
|---|---|
| Flight time | N/A |
| Altitude | 37000 |
| Route | MZULO3 ETECK KR90W JAINS 3768N 3760N 3850N 3940N 3930N 4020N ERPES BARDI M191 RIDAV |
| Aircraft | A359/H-SDE2E3GHIJ3J4J5LM1ORWXY/LB1D1 |
Departure
| Time | 2026-04-25 11:57 |
|---|---|
| Airport | Orlando International Airport (KMCO) |
Arrival
| Time | N/A |
|---|---|
| Airport | Adolfo Suárez Madrid–Barajas Airport (LEMD) |
| Time | Latitude | Longitude | Altitude | Speed | Heading |
|---|---|---|---|---|---|
| 2026-04-25 10:33 | 28.43430 | -81.31607 | 106 ft | 0 kts | 119° |
| 2026-04-25 10:36 | 28.43418 | -81.31584 | 106 ft | 0 kts | 119° |
| 2026-04-25 11:29 | 28.43424 | -81.31595 | 106 ft | 4 kts | 124° |
| 2026-04-25 11:29 | 28.43441 | -81.31618 | 105 ft | 4 kts | 140° |
| 2026-04-25 11:30 | 28.43463 | -81.31635 | 106 ft | 4 kts | 154° |
| 2026-04-25 11:30 | 28.43488 | -81.31647 | 106 ft | 4 kts | 166° |
| 2026-04-25 11:30 | 28.43515 | -81.31652 | 106 ft | 4 kts | 176° |
| 2026-04-25 11:30 | 28.43542 | -81.31652 | 107 ft | 4 kts | 185° |
| 2026-04-25 11:31 | 28.43568 | -81.31648 | 107 ft | 4 kts | 191° |
| 2026-04-25 11:31 | 28.43586 | -81.31644 | 107 ft | 0 kts | 192° |
| 2026-04-25 11:34 | 28.43577 | -81.31646 | 107 ft | 4 kts | 192° |
| 2026-04-25 11:34 | 28.43545 | -81.31658 | 106 ft | 2 kts | 206° |
| 2026-04-25 11:34 | 28.43532 | -81.31668 | 105 ft | 2 kts | 219° |
| 2026-04-25 11:35 | 28.43525 | -81.31678 | 106 ft | 0 kts | 231° |
| 2026-04-25 11:35 | 28.43525 | -81.31679 | 106 ft | 2 kts | 233° |
| 2026-04-25 11:35 | 28.43511 | -81.31732 | 107 ft | 12 kts | 250° |
| 2026-04-25 11:35 | 28.43464 | -81.31818 | 108 ft | 13 kts | 223° |
| 2026-04-25 11:36 | 28.43374 | -81.31841 | 107 ft | 14 kts | 181° |
| 2026-04-25 11:36 | 28.43268 | -81.31841 | 106 ft | 15 kts | 179° |
| 2026-04-25 11:36 | 28.43162 | -81.31840 | 107 ft | 15 kts | 179° |
| 2026-04-25 11:36 | 28.43056 | -81.31838 | 107 ft | 15 kts | 179° |
| 2026-04-25 11:37 | 28.42946 | -81.31836 | 107 ft | 16 kts | 179° |
| 2026-04-25 11:37 | 28.42832 | -81.31836 | 109 ft | 16 kts | 180° |
| 2026-04-25 11:37 | 28.42726 | -81.31834 | 111 ft | 15 kts | 178° |
| 2026-04-25 11:37 | 28.42626 | -81.31832 | 110 ft | 15 kts | 179° |
| 2026-04-25 11:38 | 28.42523 | -81.31831 | 111 ft | 15 kts | 180° |
| 2026-04-25 11:38 | 28.42412 | -81.31830 | 110 ft | 16 kts | 178° |
| 2026-04-25 11:38 | 28.42350 | -81.31752 | 112 ft | 15 kts | 95° |
| 2026-04-25 11:38 | 28.42349 | -81.31623 | 109 ft | 17 kts | 90° |
| 2026-04-25 11:39 | 28.42351 | -81.31479 | 107 ft | 19 kts | 90° |
| 2026-04-25 11:39 | 28.42351 | -81.31331 | 106 ft | 14 kts | 90° |
| 2026-04-25 11:39 | 28.42346 | -81.31224 | 106 ft | 14 kts | 95° |
| 2026-04-25 11:39 | 28.42332 | -81.31114 | 106 ft | 15 kts | 100° |
| 2026-04-25 11:40 | 28.42319 | -81.30997 | 106 ft | 15 kts | 91° |
| 2026-04-25 11:40 | 28.42322 | -81.30916 | 106 ft | 6 kts | 86° |
| 2026-04-25 11:40 | 28.42323 | -81.30898 | 106 ft | 0 kts | 86° |
| 2026-04-25 11:40 | 28.42324 | -81.30880 | 106 ft | 10 kts | 86° |
| 2026-04-25 11:41 | 28.42332 | -81.30762 | 109 ft | 16 kts | 85° |
| 2026-04-25 11:41 | 28.42340 | -81.30632 | 111 ft | 17 kts | 85° |
| 2026-04-25 11:41 | 28.42349 | -81.30498 | 112 ft | 17 kts | 85° |
| 2026-04-25 11:41 | 28.42357 | -81.30334 | 108 ft | 23 kts | 88° |
| 2026-04-25 11:42 | 28.42360 | -81.30214 | 106 ft | 23 kts | 88° |
| 2026-04-25 11:42 | 28.42362 | -81.30019 | 108 ft | 14 kts | 90° |
| 2026-04-25 11:42 | 28.42363 | -81.29919 | 110 ft | 9 kts | 88° |
| 2026-04-25 11:42 | 28.42365 | -81.29868 | 109 ft | 10 kts | 87° |
| 2026-04-25 11:43 | 28.42372 | -81.29832 | 108 ft | 1 kts | 68° |
| 2026-04-25 11:43 | 28.42375 | -81.29825 | 106 ft | 1 kts | 62° |
| 2026-04-25 11:43 | 28.42376 | -81.29825 | 106 ft | 0 kts | 61° |
| 2026-04-25 11:44 | 28.42382 | -81.29816 | 107 ft | 4 kts | 48° |
| 2026-04-25 11:44 | 28.42422 | -81.29797 | 108 ft | 7 kts | 10° |
| 2026-04-25 11:44 | 28.42476 | -81.29795 | 106 ft | 8 kts | 0° |
| 2026-04-25 11:44 | 28.42541 | -81.29797 | 107 ft | 10 kts | 355° |
| 2026-04-25 11:45 | 28.42616 | -81.29799 | 108 ft | 11 kts | 0° |
| 2026-04-25 11:45 | 28.42699 | -81.29799 | 107 ft | 12 kts | 360° |
| 2026-04-25 11:45 | 28.42789 | -81.29799 | 108 ft | 13 kts | 0° |
| 2026-04-25 11:45 | 28.42886 | -81.29799 | 108 ft | 14 kts | 0° |
| 2026-04-25 11:46 | 28.42971 | -81.29800 | 108 ft | 8 kts | 359° |
| 2026-04-25 11:46 | 28.43008 | -81.29800 | 108 ft | 2 kts | 359° |
| 2026-04-25 11:46 | 28.43021 | -81.29800 | 108 ft | 2 kts | 359° |
| 2026-04-25 11:46 | 28.43026 | -81.29800 | 109 ft | 0 kts | 359° |
| 2026-04-25 11:48 | 28.43027 | -81.29800 | 109 ft | 1 kts | 359° |
| 2026-04-25 11:48 | 28.43058 | -81.29800 | 108 ft | 6 kts | 359° |
| 2026-04-25 11:49 | 28.43101 | -81.29801 | 108 ft | 7 kts | 359° |
| 2026-04-25 11:49 | 28.43154 | -81.29801 | 108 ft | 8 kts | 359° |
| 2026-04-25 11:49 | 28.43205 | -81.29802 | 108 ft | 5 kts | 359° |
| 2026-04-25 11:49 | 28.43220 | -81.29802 | 108 ft | 0 kts | 360° |
| 2026-04-25 11:54 | 28.43247 | -81.29802 | 108 ft | 12 kts | 360° |
| 2026-04-25 11:54 | 28.43438 | -81.29803 | 109 ft | 14 kts | 359° |
| 2026-04-25 11:55 | 28.43528 | -81.29795 | 109 ft | 12 kts | 29° |
| 2026-04-25 11:55 | 28.43550 | -81.29723 | 107 ft | 7 kts | 89° |
| 2026-04-25 11:55 | 28.43545 | -81.29661 | 108 ft | 8 kts | 99° |
| 2026-04-25 11:55 | 28.43520 | -81.29607 | 108 ft | 7 kts | 139° |
| 2026-04-25 11:56 | 28.43477 | -81.29589 | 109 ft | 6 kts | 173° |
| 2026-04-25 11:56 | 28.43430 | -81.29587 | 111 ft | 13 kts | 178° |
| 2026-04-25 11:56 | 28.43113 | -81.29582 | 111 ft | 79 kts | 179° |
| 2026-04-25 11:56 | 28.42355 | -81.29575 | 105 ft | 137 kts | 179° |
| 2026-04-25 11:57 | 28.41256 | -81.29566 | 230 ft | 175 kts | 180° |
| 2026-04-25 11:57 | 28.40039 | -81.29563 | 963 ft | 169 kts | 179° |
| 2026-04-25 11:57 | 28.38872 | -81.29483 | 1602 ft | 173 kts | 175° |
| 2026-04-25 11:57 | 28.37661 | -81.29109 | 1775 ft | 188 kts | 158° |
| 2026-04-25 11:58 | 28.36529 | -81.28261 | 1985 ft | 204 kts | 142° |
| 2026-04-25 11:58 | 28.35400 | -81.27171 | 2147 ft | 221 kts | 140° |
| 2026-04-25 11:58 | 28.34216 | -81.25964 | 2400 ft | 236 kts | 139° |
| 2026-04-25 11:58 | 28.33038 | -81.24587 | 2635 ft | 252 kts | 123° |
| 2026-04-25 11:59 | 28.32571 | -81.22656 | 2956 ft | 262 kts | 87° |
| 2026-04-25 11:59 | 28.33170 | -81.20738 | 3433 ft | 264 kts | 53° |
| 2026-04-25 11:59 | 28.34409 | -81.19180 | 4003 ft | 265 kts | 47° |
| 2026-04-25 12:00 | 28.36524 | -81.15731 | 5103 ft | 268 kts | 61° |
| 2026-04-25 12:00 | 28.37351 | -81.13828 | 5637 ft | 271 kts | 65° |
| 2026-04-25 12:00 | 28.38814 | -81.09843 | 6670 ft | 276 kts | 68° |
| 2026-04-25 12:01 | 28.39507 | -81.07798 | 7145 ft | 279 kts | 68° |
| 2026-04-25 12:01 | 28.40193 | -81.05722 | 7618 ft | 283 kts | 69° |
| 2026-04-25 12:01 | 28.40882 | -81.03616 | 8112 ft | 286 kts | 69° |
| 2026-04-25 12:01 | 28.41573 | -81.01485 | 8626 ft | 289 kts | 68° |
| 2026-04-25 12:02 | 28.42971 | -80.97157 | 9628 ft | 295 kts | 68° |
| 2026-04-25 12:02 | 28.43681 | -80.94953 | 10098 ft | 299 kts | 68° |
| 2026-04-25 12:02 | 28.44408 | -80.92698 | 10346 ft | 311 kts | 68° |
| 2026-04-25 12:03 | 28.45167 | -80.90341 | 10565 ft | 323 kts | 69° |
| 2026-04-25 12:03 | 28.45952 | -80.87901 | 10775 ft | 335 kts | 69° |
| 2026-04-25 12:03 | 28.46764 | -80.85372 | 11005 ft | 346 kts | 69° |
| 2026-04-25 12:03 | 28.47544 | -80.82737 | 11190 ft | 358 kts | 74° |
| 2026-04-25 12:04 | 28.47996 | -80.79915 | 11404 ft | 369 kts | 81° |
| 2026-04-25 12:04 | 28.48325 | -80.76982 | 11600 ft | 379 kts | 82° |
| 2026-04-25 12:04 | 28.48647 | -80.73976 | 11794 ft | 387 kts | 82° |
| 2026-04-25 12:04 | 28.48978 | -80.70916 | 12110 ft | 392 kts | 82° |
| 2026-04-25 12:05 | 28.49316 | -80.67828 | 12472 ft | 395 kts | 82° |
| 2026-04-25 12:05 | 28.49653 | -80.64757 | 12784 ft | 398 kts | 82° |
| 2026-04-25 12:05 | 28.49998 | -80.61623 | 13125 ft | 401 kts | 82° |
| 2026-04-25 12:05 | 28.50345 | -80.58473 | 13494 ft | 403 kts | 82° |
| 2026-04-25 12:06 | 28.50695 | -80.55296 | 13841 ft | 405 kts | 82° |
| 2026-04-25 12:06 | 28.51046 | -80.52105 | 14155 ft | 408 kts | 82° |
| 2026-04-25 12:06 | 28.51398 | -80.48892 | 14495 ft | 410 kts | 82° |
| 2026-04-25 12:06 | 28.51752 | -80.45664 | 14812 ft | 413 kts | 82° |
| 2026-04-25 12:07 | 28.52108 | -80.42406 | 15112 ft | 416 kts | 82° |
| 2026-04-25 12:07 | 28.52465 | -80.39136 | 15433 ft | 418 kts | 81° |
| 2026-04-25 12:07 | 28.52823 | -80.35845 | 15758 ft | 421 kts | 81° |
| 2026-04-25 12:07 | 28.53184 | -80.32528 | 16072 ft | 423 kts | 81° |
| 2026-04-25 12:08 | 28.53709 | -80.29231 | 16390 ft | 424 kts | 73° |
| 2026-04-25 12:08 | 28.54700 | -80.26077 | 16699 ft | 424 kts | 65° |
| 2026-04-25 12:08 | 28.55862 | -80.22988 | 17019 ft | 426 kts | 64° |
| 2026-04-25 12:08 | 28.57053 | -80.19884 | 17333 ft | 429 kts | 64° |
| 2026-04-25 12:09 | 28.58231 | -80.16806 | 17635 ft | 431 kts | 64° |
| 2026-04-25 12:09 | 28.59443 | -80.13624 | 17943 ft | 435 kts | 64° |
| 2026-04-25 12:09 | 28.60647 | -80.10455 | 18241 ft | 437 kts | 64° |
| 2026-04-25 12:09 | 28.61851 | -80.07278 | 18517 ft | 439 kts | 64° |
| 2026-04-25 12:10 | 28.63061 | -80.04080 | 18795 ft | 440 kts | 64° |
| 2026-04-25 12:10 | 28.64273 | -80.00872 | 19095 ft | 441 kts | 64° |
| 2026-04-25 12:10 | 28.65469 | -79.97700 | 19367 ft | 443 kts | 64° |
| 2026-04-25 12:10 | 28.66685 | -79.94477 | 19647 ft | 444 kts | 64° |
| 2026-04-25 12:11 | 28.67904 | -79.91240 | 19931 ft | 445 kts | 64° |
| 2026-04-25 12:11 | 28.69128 | -79.87989 | 20189 ft | 447 kts | 64° |
| 2026-04-25 12:11 | 28.70352 | -79.84733 | 20447 ft | 448 kts | 64° |
| 2026-04-25 12:11 | 28.71579 | -79.81466 | 20714 ft | 450 kts | 64° |
| 2026-04-25 12:12 | 28.72810 | -79.78188 | 20986 ft | 451 kts | 64° |
| 2026-04-25 12:12 | 28.73643 | -79.75967 | 21161 ft | 452 kts | 64° |
| 2026-04-25 12:12 | 28.75282 | -79.71593 | 21493 ft | 454 kts | 64° |
| 2026-04-25 12:12 | 28.76523 | -79.68279 | 21752 ft | 455 kts | 64° |
| 2026-04-25 12:13 | 28.77766 | -79.64956 | 22003 ft | 457 kts | 64° |
| 2026-04-25 12:13 | 28.79015 | -79.61613 | 22247 ft | 458 kts | 65° |
| 2026-04-25 12:13 | 28.80277 | -79.58277 | 22487 ft | 459 kts | 63° |
| 2026-04-25 12:13 | 28.81789 | -79.55076 | 22730 ft | 458 kts | 55° |
| 2026-04-25 12:14 | 28.83585 | -79.52077 | 22948 ft | 459 kts | 52° |
| 2026-04-25 12:14 | 28.85449 | -79.49116 | 23222 ft | 459 kts | 52° |
| 2026-04-25 12:14 | 28.87321 | -79.46156 | 23463 ft | 461 kts | 52° |
| 2026-04-25 12:14 | 28.89196 | -79.43183 | 23653 ft | 462 kts | 52° |
| 2026-04-25 12:15 | 28.91076 | -79.40196 | 23843 ft | 464 kts | 52° |
| 2026-04-25 12:15 | 28.92959 | -79.37198 | 24019 ft | 465 kts | 52° |
| 2026-04-25 12:15 | 28.94845 | -79.34192 | 24232 ft | 466 kts | 52° |
| 2026-04-25 12:15 | 28.96729 | -79.31185 | 24444 ft | 467 kts | 52° |
| 2026-04-25 12:16 | 28.98625 | -79.28156 | 24628 ft | 468 kts | 52° |
| 2026-04-25 12:16 | 29.00520 | -79.25126 | 24829 ft | 469 kts | 52° |
| 2026-04-25 12:16 | 29.02418 | -79.22091 | 25023 ft | 470 kts | 52° |
| 2026-04-25 12:16 | 29.04323 | -79.19040 | 25213 ft | 471 kts | 52° |
| 2026-04-25 12:17 | 29.06226 | -79.15991 | 25416 ft | 472 kts | 52° |
| 2026-04-25 12:17 | 29.08108 | -79.12973 | 25596 ft | 473 kts | 52° |
| 2026-04-25 12:17 | 29.10018 | -79.09909 | 25806 ft | 474 kts | 52° |
| 2026-04-25 12:17 | 29.11928 | -79.06840 | 26045 ft | 474 kts | 52° |
| 2026-04-25 12:18 | 29.13847 | -79.03756 | 26227 ft | 475 kts | 52° |
| 2026-04-25 12:18 | 29.15766 | -79.00671 | 26395 ft | 477 kts | 52° |
| 2026-04-25 12:18 | 29.17690 | -78.97575 | 26594 ft | 478 kts | 52° |
| 2026-04-25 12:18 | 29.19618 | -78.94469 | 26806 ft | 479 kts | 52° |
| 2026-04-25 12:19 | 29.22839 | -78.89277 | 27117 ft | 481 kts | 52° |
| 2026-04-25 12:19 | 29.25434 | -78.85089 | 27380 ft | 483 kts | 52° |
| 2026-04-25 12:19 | 29.27378 | -78.81948 | 27568 ft | 484 kts | 52° |
| 2026-04-25 12:20 | 29.29324 | -78.78802 | 27771 ft | 485 kts | 52° |
| 2026-04-25 12:20 | 29.31275 | -78.75646 | 27970 ft | 486 kts | 52° |
| 2026-04-25 12:20 | 29.33231 | -78.72478 | 28161 ft | 487 kts | 52° |
| 2026-04-25 12:20 | 29.35189 | -78.69306 | 28356 ft | 488 kts | 52° |
| 2026-04-25 12:21 | 29.37171 | -78.66138 | 28523 ft | 490 kts | 51° |
| 2026-04-25 12:21 | 29.39215 | -78.63004 | 28660 ft | 492 kts | 51° |
| 2026-04-25 12:21 | 29.41274 | -78.59870 | 28834 ft | 493 kts | 51° |
| 2026-04-25 12:21 | 29.43344 | -78.56719 | 29028 ft | 494 kts | 51° |
| 2026-04-25 12:22 | 29.45408 | -78.53570 | 29201 ft | 495 kts | 51° |
| 2026-04-25 12:22 | 29.47479 | -78.50406 | 29391 ft | 496 kts | 51° |
| 2026-04-25 12:22 | 29.49591 | -78.47277 | 29518 ft | 495 kts | 44° |
| 2026-04-25 12:22 | 29.52108 | -78.44589 | 29704 ft | 494 kts | 38° |
| 2026-04-25 12:23 | 29.54808 | -78.42141 | 29872 ft | 494 kts | 35° |
| 2026-04-25 12:23 | 29.57563 | -78.39774 | 30034 ft | 495 kts | 34° |
| 2026-04-25 12:23 | 29.60324 | -78.37391 | 30235 ft | 496 kts | 35° |
| 2026-04-25 12:23 | 29.63050 | -78.34975 | 30487 ft | 495 kts | 36° |
| 2026-04-25 12:24 | 29.65746 | -78.32519 | 30718 ft | 494 kts | 37° |
| 2026-04-25 12:24 | 29.68416 | -78.30035 | 30953 ft | 494 kts | 37° |
| 2026-04-25 12:24 | 29.71076 | -78.27529 | 31192 ft | 493 kts | 38° |
| 2026-04-25 12:24 | 29.73722 | -78.25019 | 31435 ft | 493 kts | 38° |
| 2026-04-25 12:25 | 29.76364 | -78.22507 | 31664 ft | 493 kts | 38° |
| 2026-04-25 12:25 | 29.78969 | -78.20027 | 31912 ft | 492 kts | 38° |
| 2026-04-25 12:25 | 29.81610 | -78.17515 | 32142 ft | 492 kts | 38° |
| 2026-04-25 12:25 | 29.84252 | -78.15003 | 32379 ft | 491 kts | 38° |
| 2026-04-25 12:26 | 29.86883 | -78.12502 | 32630 ft | 491 kts | 38° |
| 2026-04-25 12:26 | 29.89517 | -78.09996 | 32844 ft | 491 kts | 38° |
| 2026-04-25 12:26 | 29.92151 | -78.07491 | 33070 ft | 490 kts | 38° |
| 2026-04-25 12:26 | 29.93927 | -78.05800 | 33224 ft | 490 kts | 38° |
| 2026-04-25 12:27 | 29.96521 | -78.03329 | 33448 ft | 490 kts | 38° |
| 2026-04-25 12:27 | 29.99165 | -78.00858 | 33675 ft | 489 kts | 35° |
| 2026-04-25 12:27 | 30.01963 | -77.98639 | 33896 ft | 488 kts | 32° |
| 2026-04-25 12:27 | 30.04805 | -77.96504 | 34099 ft | 487 kts | 31° |
| 2026-04-25 12:28 | 30.07666 | -77.94403 | 34275 ft | 487 kts | 31° |
| 2026-04-25 12:28 | 30.10532 | -77.92321 | 34414 ft | 488 kts | 31° |
| 2026-04-25 12:28 | 30.13411 | -77.90238 | 34625 ft | 487 kts | 31° |
| 2026-04-25 12:28 | 30.16274 | -77.88165 | 34840 ft | 486 kts | 31° |
| 2026-04-25 12:29 | 30.19134 | -77.86091 | 35043 ft | 485 kts | 31° |
| 2026-04-25 12:29 | 30.21988 | -77.84015 | 35248 ft | 484 kts | 31° |
| 2026-04-25 12:29 | 30.24832 | -77.81943 | 35446 ft | 483 kts | 31° |
| 2026-04-25 12:29 | 30.27674 | -77.79869 | 35645 ft | 483 kts | 30° |
| 2026-04-25 12:30 | 30.30512 | -77.77796 | 35824 ft | 482 kts | 30° |
| 2026-04-25 12:30 | 30.33347 | -77.75722 | 36042 ft | 481 kts | 30° |
| 2026-04-25 12:30 | 30.36173 | -77.73654 | 36216 ft | 481 kts | 30° |
| 2026-04-25 12:30 | 30.39003 | -77.71583 | 36405 ft | 480 kts | 30° |
| 2026-04-25 12:31 | 30.41826 | -77.69514 | 36572 ft | 480 kts | 30° |
| 2026-04-25 12:31 | 30.44646 | -77.67446 | 36760 ft | 479 kts | 30° |
| 2026-04-25 12:31 | 30.47460 | -77.65382 | 36930 ft | 478 kts | 30° |
| 2026-04-25 12:32 | 30.53116 | -77.61230 | 36987 ft | 483 kts | 30° |
| 2026-04-25 12:32 | 30.58806 | -77.57047 | 36985 ft | 485 kts | 31° |
| 2026-04-25 12:33 | 30.64519 | -77.52840 | 36993 ft | 487 kts | 31° |
| 2026-04-25 12:33 | 30.70243 | -77.48617 | 36988 ft | 487 kts | 31° |
| 2026-04-25 12:34 | 30.75962 | -77.44392 | 36988 ft | 487 kts | 31° |
| 2026-04-25 12:34 | 30.81685 | -77.40160 | 36982 ft | 487 kts | 31° |
| 2026-04-25 12:35 | 30.87404 | -77.35924 | 36987 ft | 487 kts | 31° |
| 2026-04-25 12:35 | 30.93087 | -77.31709 | 36988 ft | 487 kts | 31° |
| 2026-04-25 12:36 | 30.98802 | -77.27464 | 36988 ft | 487 kts | 31° |
| 2026-04-25 12:36 | 31.04515 | -77.23214 | 36987 ft | 487 kts | 31° |
| 2026-04-25 12:37 | 31.10241 | -77.18948 | 36986 ft | 489 kts | 31° |
| 2026-04-25 12:37 | 31.15984 | -77.14665 | 36990 ft | 490 kts | 31° |
| 2026-04-25 12:38 | 31.21726 | -77.10374 | 36984 ft | 490 kts | 31° |
| 2026-04-25 12:38 | 31.27470 | -77.06077 | 36987 ft | 490 kts | 31° |
| 2026-04-25 12:39 | 31.33180 | -77.01742 | 36983 ft | 490 kts | 35° |
| 2026-04-25 12:39 | 31.38158 | -76.96294 | 36980 ft | 492 kts | 47° |
| 2026-04-25 12:40 | 31.42595 | -76.90193 | 36988 ft | 492 kts | 49° |
| 2026-04-25 12:40 | 31.46927 | -76.83985 | 36989 ft | 493 kts | 50° |
| 2026-04-25 12:41 | 31.51422 | -76.77537 | 36985 ft | 494 kts | 50° |
| 2026-04-25 12:41 | 31.55776 | -76.71321 | 36988 ft | 494 kts | 50° |
| 2026-04-25 12:42 | 31.60144 | -76.65093 | 36983 ft | 494 kts | 50° |
| 2026-04-25 12:42 | 31.64516 | -76.58853 | 36992 ft | 494 kts | 50° |
| 2026-04-25 12:43 | 31.68875 | -76.52620 | 36987 ft | 494 kts | 50° |
| 2026-04-25 12:43 | 31.75419 | -76.43242 | 36990 ft | 495 kts | 50° |
| 2026-04-25 12:44 | 31.79786 | -76.36969 | 36984 ft | 496 kts | 50° |
| 2026-04-25 12:45 | 31.86336 | -76.27542 | 36991 ft | 496 kts | 50° |
| 2026-04-25 12:45 | 31.92839 | -76.18158 | 36989 ft | 495 kts | 50° |
| 2026-04-25 12:46 | 31.97187 | -76.11872 | 36984 ft | 495 kts | 50° |
| 2026-04-25 12:46 | 32.01543 | -76.05566 | 36988 ft | 496 kts | 50° |
| 2026-04-25 12:47 | 32.05900 | -75.99245 | 36987 ft | 497 kts | 50° |
| 2026-04-25 12:47 | 32.10251 | -75.92923 | 36994 ft | 497 kts | 50° |
| 2026-04-25 12:48 | 32.14595 | -75.86599 | 36991 ft | 495 kts | 50° |
| 2026-04-25 12:48 | 32.18936 | -75.80272 | 36986 ft | 495 kts | 50° |
| 2026-04-25 12:49 | 32.23264 | -75.73952 | 36989 ft | 496 kts | 50° |
| 2026-04-25 12:49 | 32.27599 | -75.67611 | 36987 ft | 496 kts | 50° |
| 2026-04-25 12:50 | 32.31908 | -75.61296 | 36989 ft | 496 kts | 50° |
| 2026-04-25 12:50 | 32.36234 | -75.54945 | 36986 ft | 495 kts | 50° |
| 2026-04-25 12:51 | 32.40551 | -75.48598 | 36992 ft | 495 kts | 50° |
| 2026-04-25 12:51 | 32.44861 | -75.42251 | 36986 ft | 495 kts | 50° |
| 2026-04-25 12:52 | 32.49177 | -75.35884 | 36990 ft | 496 kts | 50° |
| 2026-04-25 12:52 | 32.53492 | -75.29508 | 36987 ft | 496 kts | 50° |
| 2026-04-25 12:53 | 32.57804 | -75.23126 | 36987 ft | 496 kts | 50° |
| 2026-04-25 12:53 | 32.62109 | -75.16742 | 36987 ft | 496 kts | 50° |
| 2026-04-25 12:54 | 32.66413 | -75.10349 | 36989 ft | 496 kts | 50° |
| 2026-04-25 12:54 | 32.70716 | -75.03947 | 36988 ft | 496 kts | 50° |
| 2026-04-25 12:55 | 32.74290 | -74.98621 | 36987 ft | 496 kts | 50° |
| 2026-04-25 12:55 | 32.79314 | -74.91121 | 36988 ft | 495 kts | 50° |
| 2026-04-25 12:56 | 32.83597 | -74.84715 | 36987 ft | 494 kts | 50° |
| 2026-04-25 12:56 | 32.87871 | -74.78312 | 36986 ft | 494 kts | 50° |
| 2026-04-25 12:57 | 32.92119 | -74.71937 | 36987 ft | 494 kts | 50° |
| 2026-04-25 12:57 | 32.96384 | -74.65525 | 36982 ft | 494 kts | 50° |
| 2026-04-25 12:58 | 33.00652 | -74.59097 | 36989 ft | 494 kts | 50° |
| 2026-04-25 12:58 | 33.04897 | -74.52692 | 36983 ft | 492 kts | 50° |
| 2026-04-25 12:59 | 33.09137 | -74.46286 | 36984 ft | 492 kts | 50° |
| 2026-04-25 12:59 | 33.13370 | -74.39879 | 36980 ft | 492 kts | 50° |
| 2026-04-25 13:00 | 33.16199 | -74.35589 | 36984 ft | 492 kts | 50° |
| 2026-04-25 13:00 | 33.21831 | -74.27036 | 36986 ft | 492 kts | 50° |
| 2026-04-25 13:01 | 33.26049 | -74.20614 | 36981 ft | 490 kts | 50° |
| 2026-04-25 13:01 | 33.30250 | -74.14212 | 36978 ft | 490 kts | 50° |
| 2026-04-25 13:02 | 33.33740 | -74.08882 | 36976 ft | 490 kts | 50° |
| 2026-04-25 13:02 | 33.37937 | -74.02465 | 36980 ft | 490 kts | 50° |
| 2026-04-25 13:03 | 33.42131 | -73.96040 | 36977 ft | 490 kts | 50° |
| 2026-04-25 13:03 | 33.46326 | -73.89600 | 36977 ft | 490 kts | 50° |
| 2026-04-25 13:04 | 33.50508 | -73.83171 | 36976 ft | 489 kts | 50° |
| 2026-04-25 13:04 | 33.54689 | -73.76733 | 36980 ft | 489 kts | 50° |
| 2026-04-25 13:05 | 33.58861 | -73.70296 | 36975 ft | 489 kts | 50° |
| 2026-04-25 13:05 | 33.63031 | -73.63850 | 36980 ft | 489 kts | 50° |
| 2026-04-25 13:06 | 33.67169 | -73.57443 | 36974 ft | 488 kts | 50° |
| 2026-04-25 13:06 | 33.71322 | -73.51002 | 36977 ft | 487 kts | 50° |
| 2026-04-25 13:07 | 33.75471 | -73.44556 | 36978 ft | 487 kts | 50° |
| 2026-04-25 13:07 | 33.79614 | -73.38107 | 36977 ft | 487 kts | 50° |